createdAt,value
2023-04-17T00:00:54.065Z,95779
2023-04-17T00:02:02.791Z,95777
2023-04-17T00:03:12.675Z,95781
2023-04-17T00:04:22.399Z,95783
2023-04-17T00:05:30.862Z,95781
2023-04-17T00:06:39.565Z,95781
2023-04-17T00:07:48.267Z,95778
2023-04-17T00:08:56.891Z,95779
2023-04-17T00:10:06.585Z,95781
2023-04-17T00:11:15.853Z,95781
2023-04-17T00:12:23.978Z,95780
2023-04-17T00:13:33.638Z,95772
2023-04-17T00:14:43.345Z,95774
2023-04-17T00:15:53.013Z,95776
2023-04-17T00:17:01.731Z,95775
2023-04-17T00:18:12.094Z,95774
2023-04-17T00:19:22.900Z,95776
2023-04-17T00:20:30.723Z,95776
2023-04-17T00:21:39.395Z,95772
2023-04-17T00:22:49.119Z,95769
2023-04-17T00:23:56.920Z,95770
2023-04-17T00:25:04.540Z,95772
2023-04-17T00:26:13.201Z,95771
2023-04-17T00:27:21.865Z,95770
2023-04-17T00:28:31.563Z,95771
2023-04-17T00:29:39.234Z,95770
2023-04-17T00:30:47.922Z,95770
2023-04-17T00:31:57.647Z,95773
2023-04-17T00:33:05.433Z,95768
2023-04-17T00:34:14.115Z,95770
2023-04-17T00:35:22.831Z,95770
2023-04-17T00:36:31.468Z,95770
2023-04-17T00:37:41.213Z,95767
2023-04-17T00:38:48.893Z,95768
2023-04-17T00:39:58.579Z,95771
2023-04-17T00:41:08.237Z,95770
2023-04-17T00:42:18.084Z,95771
2023-04-17T00:43:26.729Z,95771
2023-04-17T00:44:35.399Z,95772
2023-04-17T00:45:45.082Z,95773
2023-04-17T00:46:54.722Z,95777
2023-04-17T00:48:02.447Z,95774
2023-04-17T00:49:10.165Z,95772
2023-04-17T00:50:18.738Z,95771
2023-04-17T00:51:27.439Z,95774
2023-04-17T00:52:37.094Z,95771
2023-04-17T00:53:46.800Z,95770
2023-04-17T00:54:57.603Z,95768
2023-04-17T00:56:07.260Z,95771
2023-04-17T00:57:16.980Z,95768
2023-04-17T00:58:24.639Z,95769
2023-04-17T00:59:33.299Z,95767
2023-04-17T01:00:41.958Z,95763
2023-04-17T01:01:50.649Z,95761
2023-04-17T01:03:00.513Z,95763
2023-04-17T01:04:09.091Z,95760
2023-04-17T01:05:16.645Z,95760
2023-04-17T01:06:26.302Z,95763
2023-04-17T01:07:33.994Z,95764
2023-04-17T01:08:42.633Z,95760
2023-04-17T01:09:51.286Z,95758
2023-04-17T01:10:59.967Z,95761
2023-04-17T01:12:09.633Z,95759
2023-04-17T01:13:17.349Z,95757
2023-04-17T01:14:25.998Z,95757
2023-04-17T01:15:35.677Z,95755
2023-04-17T01:16:43.374Z,95755
2023-04-17T01:17:52.057Z,95753
2023-04-17T01:19:00.657Z,95749
2023-04-17T01:20:09.312Z,95751
2023-04-17T01:21:18.955Z,95752
2023-04-17T01:22:27.631Z,95748
2023-04-17T01:23:37.309Z,95749
2023-04-17T01:24:46.948Z,95745
2023-04-17T01:25:55.602Z,95752
2023-04-17T01:27:04.261Z,95750
2023-04-17T01:28:12.932Z,95750
2023-04-17T01:29:21.595Z,95754
2023-04-17T01:30:31.462Z,95749
2023-04-17T01:31:40.302Z,95753
2023-04-17T01:32:50.097Z,95749
2023-04-17T01:33:59.730Z,95749
2023-04-17T01:35:08.437Z,95748
2023-04-17T01:36:16.095Z,95750
2023-04-17T01:37:24.748Z,95754
2023-04-17T01:38:34.437Z,95752
2023-04-17T01:39:44.108Z,95751
2023-04-17T01:40:52.754Z,95750
2023-04-17T01:42:01.421Z,95753
2023-04-17T01:43:11.124Z,95758
2023-04-17T01:44:18.800Z,95760
2023-04-17T01:45:27.467Z,95759
2023-04-17T01:46:36.132Z,95761
2023-04-17T01:47:44.809Z,95763
2023-04-17T01:48:54.426Z,95763
2023-04-17T01:50:02.080Z,95766
2023-04-17T01:51:11.757Z,95766
2023-04-17T01:52:21.412Z,95770
2023-04-17T01:53:30.102Z,95769
2023-04-17T01:54:38.774Z,95772
2023-04-17T01:55:47.595Z,95772
2023-04-17T01:56:57.088Z,95775
2023-04-17T01:58:06.772Z,95774
2023-04-17T01:59:14.544Z,95775
2023-04-17T02:00:23.080Z,95775
2023-04-17T02:01:32.773Z,95771
2023-04-17T02:02:41.497Z,95773
2023-04-17T02:03:49.159Z,95769
2023-04-17T02:04:58.774Z,95776
2023-04-17T02:06:07.419Z,95775
2023-04-17T02:07:17.091Z,95769
2023-04-17T02:08:24.804Z,95775
2023-04-17T02:09:33.436Z,95779
2023-04-17T02:10:43.084Z,95769
2023-04-17T02:11:50.761Z,95772
2023-04-17T02:12:59.445Z,95775
2023-04-17T02:14:08.093Z,95767
2023-04-17T02:15:16.200Z,95770
2023-04-17T02:16:25.877Z,95763
2023-04-17T02:17:34.545Z,95764
2023-04-17T02:18:44.357Z,95764
2023-04-17T02:19:54.010Z,95759
2023-04-17T02:21:02.685Z,95758
2023-04-17T02:22:11.348Z,95757
2023-04-17T02:23:20.021Z,95759
2023-04-17T02:24:28.682Z,95758
2023-04-17T02:25:38.332Z,95750
2023-04-17T02:26:45.998Z,95756
2023-04-17T02:27:55.705Z,95755
2023-04-17T02:29:05.350Z,95759
2023-04-17T02:30:14.996Z,95757
2023-04-17T02:31:23.708Z,95757
2023-04-17T02:32:32.445Z,95754
2023-04-17T02:33:41.109Z,95751
2023-04-17T02:34:50.762Z,95752
2023-04-17T02:36:00.506Z,95751
2023-04-17T02:37:10.144Z,95753
2023-04-17T02:38:19.821Z,95749
2023-04-17T02:39:28.477Z,95753
2023-04-17T02:40:37.119Z,95749
2023-04-17T02:41:45.800Z,95749
2023-04-17T02:42:54.454Z,95750
2023-04-17T02:44:04.187Z,95749
2023-04-17T02:45:12.817Z,95751
2023-04-17T02:46:21.499Z,95755
2023-04-17T02:47:30.158Z,95754
2023-04-17T02:48:38.843Z,95752
2023-04-17T02:49:47.510Z,95757
2023-04-17T02:50:57.178Z,95755
2023-04-17T02:52:05.838Z,95754
2023-04-17T02:53:14.518Z,95753
2023-04-17T02:54:24.216Z,95754
2023-04-17T02:55:32.905Z,95755
2023-04-17T02:56:42.575Z,95756
2023-04-17T02:57:51.266Z,95750
2023-04-17T02:58:59.956Z,95753
2023-04-17T03:00:09.704Z,95751
2023-04-17T03:01:18.332Z,95752
2023-04-17T03:02:27.118Z,95750
2023-04-17T03:03:36.921Z,95750
2023-04-17T03:04:45.432Z,95748
2023-04-17T03:05:55.085Z,95745
2023-04-17T03:07:03.746Z,95752
2023-04-17T03:08:13.420Z,95743
2023-04-17T03:09:23.102Z,95747
2023-04-17T03:10:30.799Z,95743
2023-04-17T03:11:40.447Z,95746
2023-04-17T03:12:50.098Z,95751
2023-04-17T03:13:57.824Z,95754
2023-04-17T03:15:08.811Z,95753
2023-04-17T03:16:17.234Z,95750
2023-04-17T03:17:26.824Z,95749
2023-04-17T03:18:36.512Z,95757
2023-04-17T03:19:45.196Z,95753
2023-04-17T03:20:53.866Z,95749
2023-04-17T03:22:03.536Z,95750
2023-04-17T03:23:11.212Z,95753
2023-04-17T03:24:19.964Z,95753
2023-04-17T03:25:29.658Z,95752
2023-04-17T03:26:38.323Z,95752
2023-04-17T03:27:47.980Z,95750
2023-04-17T03:28:55.689Z,95752
2023-04-17T03:30:04.341Z,95751
2023-04-17T03:31:14.016Z,95746
2023-04-17T03:32:21.732Z,95747
2023-04-17T03:33:31.494Z,95746
2023-04-17T03:34:40.182Z,95750
2023-04-17T03:35:48.828Z,95749
2023-04-17T03:36:58.529Z,95756
2023-04-17T03:38:07.243Z,95754
2023-04-17T03:39:16.963Z,95757
2023-04-17T03:40:26.625Z,95756
2023-04-17T03:41:36.274Z,95757
2023-04-17T03:42:45.950Z,95765
2023-04-17T03:43:54.640Z,95763
2023-04-17T03:45:02.333Z,95765
2023-04-17T03:46:12.148Z,95764
2023-04-17T03:47:21.773Z,95764
2023-04-17T03:48:31.455Z,95765
2023-04-17T03:49:41.157Z,95761
2023-04-17T03:50:50.907Z,95762
2023-04-17T03:51:59.568Z,95761
2023-04-17T03:53:07.238Z,95766
2023-04-17T03:54:15.929Z,95765
2023-04-17T03:55:25.611Z,95768
2023-04-17T03:56:33.350Z,95765
2023-04-17T03:57:40.968Z,95769
2023-04-17T03:58:50.680Z,95768
2023-04-17T03:59:59.391Z,95766
2023-04-17T04:01:08.064Z,95772
2023-04-17T04:02:16.825Z,95769
2023-04-17T04:03:25.624Z,95771
2023-04-17T04:04:35.308Z,95770
2023-04-17T04:05:43.825Z,95769
2023-04-17T04:06:52.521Z,95774
2023-04-17T04:08:02.207Z,95769
2023-04-17T04:09:09.949Z,95774
2023-04-17T04:10:18.576Z,95775
2023-04-17T04:11:28.280Z,95771
2023-04-17T04:12:36.899Z,95775
2023-04-17T04:13:46.600Z,95773
2023-04-17T04:14:55.319Z,95774
2023-04-17T04:16:05.043Z,95774
2023-04-17T04:17:14.665Z,95775
2023-04-17T04:18:22.345Z,95776
2023-04-17T04:19:31.058Z,95774
2023-04-17T04:20:39.780Z,95769
2023-04-17T04:21:48.470Z,95775
2023-04-17T04:22:58.152Z,95772
2023-04-17T04:24:06.821Z,95775
2023-04-17T04:25:14.527Z,95775
2023-04-17T04:26:24.215Z,95775
2023-04-17T04:27:32.953Z,95776
2023-04-17T04:28:42.608Z,95774
2023-04-17T04:29:51.346Z,95777
2023-04-17T04:31:00.100Z,95780
2023-04-17T04:32:09.857Z,95779
2023-04-17T04:33:16.453Z,95779
2023-04-17T04:34:25.173Z,95777
2023-04-17T04:35:34.863Z,95781
2023-04-17T04:36:43.600Z,95777
2023-04-17T04:37:53.278Z,95783
2023-04-17T04:39:01.969Z,95784
2023-04-17T04:40:10.668Z,95781
2023-04-17T04:41:20.363Z,95783
2023-04-17T04:42:28.022Z,95784
2023-04-17T04:43:37.713Z,95775
2023-04-17T04:44:46.482Z,95777
2023-04-17T04:45:55.346Z,95775
2023-04-17T04:47:05.189Z,95768
2023-04-17T04:48:14.729Z,95771
2023-04-17T04:49:23.477Z,95765
2023-04-17T04:50:32.206Z,95763
2023-04-17T04:51:41.882Z,95772
2023-04-17T04:52:50.570Z,95770
2023-04-17T04:53:59.274Z,95778
2023-04-17T04:55:07.968Z,95779
2023-04-17T04:56:16.668Z,95783
2023-04-17T04:57:26.391Z,95779
2023-04-17T04:58:35.057Z,95783
2023-04-17T04:59:43.755Z,95786
2023-04-17T05:00:53.634Z,95785
2023-04-17T05:02:01.254Z,95781
2023-04-17T05:03:09.968Z,95787
2023-04-17T05:04:18.633Z,95790
2023-04-17T05:05:27.280Z,95790
2023-04-17T05:06:35.900Z,95795
2023-04-17T05:07:43.569Z,95789
2023-04-17T05:08:53.252Z,95798
2023-04-17T05:10:02.931Z,95792
2023-04-17T05:11:12.609Z,95793
2023-04-17T05:12:21.278Z,95793
2023-04-17T05:13:29.926Z,95792
2023-04-17T05:14:38.627Z,95794
2023-04-17T05:15:48.312Z,95798
2023-04-17T05:16:55.982Z,95797
2023-04-17T05:18:04.695Z,95797
2023-04-17T05:19:14.522Z,95802
2023-04-17T05:20:24.189Z,95798
2023-04-17T05:21:32.910Z,95800
2023-04-17T05:22:41.609Z,95800
2023-04-17T05:23:50.373Z,95794
2023-04-17T05:25:00.066Z,95797
2023-04-17T05:26:08.786Z,95798
2023-04-17T05:27:17.472Z,95798
2023-04-17T05:28:27.178Z,95799
2023-04-17T05:29:34.884Z,95804
2023-04-17T05:30:43.579Z,95805
2023-04-17T05:31:52.296Z,95804
2023-04-17T05:33:01.008Z,95801
2023-04-17T05:34:10.635Z,95810
2023-04-17T05:35:18.331Z,95810
2023-04-17T05:36:27.002Z,95803
2023-04-17T05:37:36.711Z,95806
2023-04-17T05:38:46.128Z,95809
2023-04-17T05:39:53.093Z,95811
2023-04-17T05:41:01.837Z,95816
2023-04-17T05:42:11.521Z,95819
2023-04-17T05:43:21.233Z,95817
2023-04-17T05:44:28.898Z,95822
2023-04-17T05:45:37.584Z,95822
2023-04-17T05:46:46.252Z,95822
2023-04-17T05:47:54.953Z,95822
2023-04-17T05:49:02.617Z,95826
2023-04-17T05:50:11.328Z,95826
2023-04-17T05:51:20.052Z,95830
2023-04-17T05:52:29.761Z,95833
2023-04-17T05:53:39.469Z,95833
2023-04-17T05:54:49.138Z,95836
2023-04-17T05:55:58.853Z,95831
2023-04-17T05:57:07.553Z,95834
2023-04-17T05:58:23.471Z,95835
2023-04-17T05:59:27.881Z,95834
2023-04-17T06:00:36.630Z,95831
2023-04-17T06:01:46.327Z,95832
2023-04-17T06:02:54.156Z,95830
2023-04-17T06:04:03.890Z,95832
2023-04-17T06:05:13.724Z,95830
2023-04-17T06:06:22.309Z,95834
2023-04-17T06:07:31.021Z,95835
2023-04-17T06:08:39.712Z,95833
2023-04-17T06:09:48.386Z,95835
2023-04-17T06:10:58.126Z,95838
2023-04-17T06:12:05.847Z,95836
2023-04-17T06:13:14.595Z,95838
2023-04-17T06:14:24.314Z,95834
2023-04-17T06:15:33.056Z,95837
2023-04-17T06:16:42.853Z,95839
2023-04-17T06:17:51.513Z,95837
2023-04-17T06:19:00.182Z,95840
2023-04-17T06:20:09.908Z,95836
2023-04-17T06:21:17.597Z,95841
2023-04-17T06:22:27.290Z,95839
2023-04-17T06:23:36.963Z,95840
2023-04-17T06:24:44.675Z,95840
2023-04-17T06:25:53.365Z,95835
2023-04-17T06:27:02.082Z,95833
2023-04-17T06:28:10.793Z,95834
2023-04-17T06:29:20.495Z,95837
2023-04-17T06:30:29.190Z,95836
2023-04-17T06:31:37.921Z,95834
2023-04-17T06:32:47.575Z,95832
2023-04-17T06:33:56.280Z,95839
2023-04-17T06:35:05.987Z,95848
2023-04-17T06:36:14.730Z,95849
2023-04-17T06:37:24.422Z,95848
2023-04-17T06:38:34.153Z,95851
2023-04-17T06:39:42.831Z,95850
2023-04-17T06:40:52.680Z,95853
2023-04-17T06:42:00.235Z,95853
2023-04-17T06:43:08.962Z,95851
2023-04-17T06:44:17.663Z,95851
2023-04-17T06:45:27.472Z,95854
2023-04-17T06:46:36.102Z,95856
2023-04-17T06:47:44.745Z,95854
2023-04-17T06:48:54.441Z,95855
2023-04-17T06:50:02.162Z,95853
2023-04-17T06:51:10.825Z,95850
2023-04-17T06:52:19.524Z,95854
2023-04-17T06:53:29.202Z,95851
2023-04-17T06:54:38.978Z,95852
2023-04-17T06:55:46.674Z,95854
2023-04-17T06:56:55.431Z,95854
2023-04-17T06:58:05.126Z,95849
2023-04-17T06:59:12.924Z,95854
2023-04-17T07:00:21.701Z,95853
2023-04-17T07:01:30.488Z,95853
2023-04-17T07:02:39.109Z,95857
2023-04-17T07:03:48.927Z,95859
2023-04-17T07:04:57.552Z,95860
2023-04-17T07:06:06.225Z,95859
2023-04-17T07:07:15.975Z,95860
2023-04-17T07:08:25.667Z,95859
2023-04-17T07:09:35.352Z,95860
2023-04-17T07:10:45.072Z,95858
2023-04-17T07:11:54.922Z,95854
2023-04-17T07:13:03.615Z,95854
2023-04-17T07:14:13.279Z,95853
2023-04-17T07:15:22.048Z,95855
2023-04-17T07:16:31.751Z,95857
2023-04-17T07:17:40.494Z,95858
2023-04-17T07:18:50.125Z,95860
2023-04-17T07:19:58.815Z,95861
2023-04-17T07:21:07.508Z,95868
2023-04-17T07:22:17.178Z,95868
2023-04-17T07:23:24.849Z,95866
2023-04-17T07:24:33.520Z,95868
2023-04-17T07:25:43.213Z,95861
2023-04-17T07:26:50.952Z,95864
2023-04-17T07:27:59.610Z,95865
2023-04-17T07:29:08.281Z,95868
2023-04-17T07:30:17.950Z,95867
2023-04-17T07:31:27.702Z,95866
2023-04-17T07:32:36.379Z,95863
2023-04-17T07:33:45.086Z,95864
2023-04-17T07:34:54.783Z,95866
2023-04-17T07:36:03.482Z,95865
2023-04-17T07:37:12.197Z,95870
2023-04-17T07:38:21.898Z,95872
2023-04-17T07:39:30.563Z,95872
2023-04-17T07:40:40.270Z,95877
2023-04-17T07:41:48.944Z,95875
2023-04-17T07:42:57.660Z,95877
2023-04-17T07:44:07.355Z,95878
2023-04-17T07:45:15.054Z,95884
2023-04-17T07:46:24.176Z,95885
2023-04-17T07:47:32.931Z,95886
2023-04-17T07:48:41.604Z,95884
2023-04-17T07:49:51.488Z,95883
2023-04-17T07:51:00.039Z,95887
2023-04-17T07:52:08.735Z,95887
2023-04-17T07:53:18.414Z,95886
2023-04-17T07:54:26.148Z,95887
2023-04-17T07:55:34.815Z,95883
2023-04-17T07:56:43.524Z,95882
2023-04-17T07:57:53.338Z,95887
2023-04-17T07:59:02.978Z,95886
2023-04-17T08:00:10.679Z,95887
2023-04-17T08:01:20.365Z,95890
2023-04-17T08:02:30.164Z,95890
2023-04-17T08:03:39.014Z,95893
2023-04-17T08:04:47.698Z,95889
2023-04-17T08:05:56.200Z,95897
2023-04-17T08:07:04.848Z,95891
2023-04-17T08:08:14.567Z,95892
2023-04-17T08:09:23.289Z,95892
2023-04-17T08:10:31.954Z,95893
2023-04-17T08:11:53.731Z,95894
2023-04-17T08:12:52.363Z,95895
2023-04-17T08:14:00.067Z,95895
2023-04-17T08:15:09.849Z,95896
2023-04-17T08:16:19.787Z,95899
2023-04-17T08:17:29.517Z,95899
2023-04-17T08:18:38.218Z,95898
2023-04-17T08:19:46.898Z,95900
2023-04-17T08:20:56.602Z,95899
2023-04-17T08:22:04.358Z,95900
2023-04-17T08:23:13.053Z,95900
2023-04-17T08:24:21.735Z,95899
2023-04-17T08:25:30.461Z,95899
2023-04-17T08:26:41.223Z,95900
2023-04-17T08:27:50.966Z,95903
2023-04-17T08:29:00.633Z,95903
2023-04-17T08:30:12.655Z,95902
2023-04-17T08:31:21.054Z,95901
2023-04-17T08:32:29.775Z,95911
2023-04-17T08:33:38.512Z,95908
2023-04-17T08:34:47.218Z,95904
2023-04-17T08:35:55.889Z,95911
2023-04-17T08:37:05.653Z,95908
2023-04-17T08:38:15.343Z,95910
2023-04-17T08:39:24.003Z,95911
2023-04-17T08:40:33.686Z,95910
2023-04-17T08:41:42.370Z,95910
2023-04-17T08:42:52.079Z,95906
2023-04-17T08:44:00.769Z,95911
2023-04-17T08:45:08.450Z,95909
2023-04-17T08:46:17.141Z,95910
2023-04-17T08:47:26.968Z,95907
2023-04-17T08:48:36.613Z,95907
2023-04-17T08:49:45.277Z,95905
2023-04-17T08:50:53.965Z,95909
2023-04-17T08:52:03.704Z,95906
2023-04-17T08:53:11.467Z,95905
2023-04-17T08:54:21.094Z,95904
2023-04-17T08:55:29.802Z,95908
2023-04-17T08:56:37.519Z,95903
2023-04-17T08:57:46.246Z,95905
2023-04-17T08:58:55.924Z,95910
2023-04-17T09:00:05.622Z,95905
2023-04-17T09:01:14.371Z,95914
2023-04-17T09:02:22.530Z,95911
2023-04-17T09:03:30.822Z,95908
2023-04-17T09:04:40.636Z,95913
2023-04-17T09:05:49.120Z,95910
2023-04-17T09:06:57.885Z,95910
2023-04-17T09:08:06.594Z,95908
2023-04-17T09:09:15.315Z,95910
2023-04-17T09:10:24.057Z,95908
2023-04-17T09:11:32.789Z,95909
2023-04-17T09:12:41.499Z,95908
2023-04-17T09:13:50.244Z,95910
2023-04-17T09:14:57.928Z,95906
2023-04-17T09:16:06.677Z,95908
2023-04-17T09:17:15.303Z,95907
2023-04-17T09:18:24.055Z,95910
2023-04-17T09:19:35.055Z,95905
2023-04-17T09:20:42.438Z,95906
2023-04-17T09:21:52.088Z,95905
2023-04-17T09:23:01.818Z,95900
2023-04-17T09:24:09.526Z,95903
2023-04-17T09:25:18.320Z,95899
2023-04-17T09:26:27.892Z,95904
2023-04-17T09:27:36.597Z,95903
2023-04-17T09:28:46.283Z,95904
2023-04-17T09:29:53.950Z,95902
2023-04-17T09:31:03.665Z,95903
2023-04-17T09:32:14.332Z,95902
2023-04-17T09:33:22.079Z,95905
2023-04-17T09:34:30.817Z,95906
2023-04-17T09:35:40.138Z,95906
2023-04-17T09:36:49.167Z,95906
2023-04-17T09:37:58.909Z,95906
2023-04-17T09:39:06.603Z,95907
2023-04-17T09:40:15.293Z,95906
2023-04-17T09:41:24.004Z,95902
2023-04-17T09:42:31.728Z,95902
2023-04-17T09:43:40.438Z,95904
2023-04-17T09:44:49.160Z,95904
2023-04-17T09:45:58.888Z,95904
2023-04-17T09:47:08.579Z,95909
2023-04-17T09:48:16.273Z,95908
2023-04-17T09:49:24.974Z,95904
2023-04-17T09:50:35.418Z,95900
2023-04-17T09:51:44.378Z,95907
2023-04-17T09:52:54.090Z,95905
2023-04-17T09:54:03.810Z,95907
2023-04-17T09:55:12.517Z,95909
2023-04-17T09:56:22.228Z,95908
2023-04-17T09:57:30.925Z,95907
2023-04-17T09:58:40.591Z,95904
2023-04-17T09:59:50.327Z,95906
2023-04-17T10:00:59.040Z,95909
2023-04-17T10:02:08.794Z,95909
2023-04-17T10:03:17.878Z,95911
2023-04-17T10:04:27.229Z,95912
2023-04-17T10:05:36.921Z,95905
2023-04-17T10:06:45.561Z,95904
2023-04-17T10:07:54.281Z,95903
2023-04-17T10:09:03.951Z,95910
2023-04-17T10:10:11.641Z,95903
2023-04-17T10:11:21.319Z,95901
2023-04-17T10:12:30.028Z,95904
2023-04-17T10:13:38.795Z,95902
2023-04-17T10:14:48.471Z,95903
2023-04-17T10:15:57.124Z,95899
2023-04-17T10:17:06.809Z,95904
2023-04-17T10:18:16.529Z,95899
2023-04-17T10:19:24.206Z,95898
2023-04-17T10:20:33.672Z,95897
2023-04-17T10:21:42.359Z,95896
2023-04-17T10:22:51.070Z,95894
2023-04-17T10:24:00.811Z,95896
2023-04-17T10:25:08.485Z,95897
2023-04-17T10:26:17.157Z,95893
2023-04-17T10:27:26.874Z,95893
2023-04-17T10:28:35.584Z,95892
2023-04-17T10:29:44.273Z,95890
2023-04-17T10:30:54.191Z,95889
2023-04-17T10:32:03.670Z,95894
2023-04-17T10:33:13.439Z,95890
2023-04-17T10:34:22.105Z,95891
2023-04-17T10:35:31.793Z,95890
2023-04-17T10:36:39.476Z,95894
2023-04-17T10:37:48.158Z,95894
2023-04-17T10:38:56.845Z,95893
2023-04-17T10:40:06.539Z,95891
2023-04-17T10:41:14.197Z,95893
2023-04-17T10:42:22.944Z,95891
2023-04-17T10:43:32.621Z,95889
2023-04-17T10:44:41.327Z,95895
2023-04-17T10:45:50.131Z,95891
2023-04-17T10:46:59.728Z,95894
2023-04-17T10:48:09.544Z,95891
2023-04-17T10:49:19.094Z,95893
2023-04-17T10:50:27.782Z,95884
2023-04-17T10:51:36.468Z,95892
2023-04-17T10:52:46.125Z,95888
2023-04-17T10:53:54.867Z,95885
2023-04-17T10:55:04.547Z,95888
2023-04-17T10:56:13.221Z,95889
2023-04-17T10:57:22.920Z,95886
2023-04-17T10:58:32.613Z,95890
2023-04-17T10:59:39.372Z,95892
2023-04-17T11:00:48.050Z,95891
2023-04-17T11:01:58.008Z,95885
2023-04-17T11:03:06.494Z,95886
2023-04-17T11:04:15.166Z,95883
2023-04-17T11:05:23.825Z,95885
2023-04-17T11:06:33.579Z,95885
2023-04-17T11:07:43.254Z,95884
2023-04-17T11:08:51.945Z,95885
2023-04-17T11:10:00.714Z,95875
2023-04-17T11:11:10.402Z,95876
2023-04-17T11:12:19.064Z,95875
2023-04-17T11:13:27.732Z,95872
2023-04-17T11:14:36.428Z,95879
2023-04-17T11:15:45.079Z,95874
2023-04-17T11:16:54.850Z,95876
2023-04-17T11:18:04.715Z,95877
2023-04-17T11:19:14.321Z,95873
2023-04-17T11:20:23.826Z,95876
2023-04-17T11:21:32.533Z,95874
2023-04-17T11:22:41.283Z,95877
2023-04-17T11:23:49.947Z,95873
2023-04-17T11:24:58.631Z,95876
2023-04-17T11:26:08.312Z,95873
2023-04-17T11:27:16.016Z,95871
2023-04-17T11:28:25.735Z,95870
2023-04-17T11:29:35.445Z,95872
2023-04-17T11:30:43.088Z,95870
2023-04-17T11:31:52.013Z,95869
2023-04-17T11:33:00.559Z,95873
2023-04-17T11:34:10.263Z,95872
2023-04-17T11:35:19.988Z,95869
2023-04-17T11:36:28.703Z,95866
2023-04-17T11:37:37.398Z,95868
2023-04-17T11:38:47.098Z,95868
2023-04-17T11:39:55.829Z,95868
2023-04-17T11:41:04.543Z,95868
2023-04-17T11:42:13.255Z,95869
2023-04-17T11:43:21.923Z,95867
2023-04-17T11:44:31.621Z,95868
2023-04-17T11:45:40.342Z,95872
2023-04-17T11:46:49.019Z,95866
2023-04-17T11:47:58.717Z,95865
2023-04-17T11:49:06.361Z,95866
2023-04-17T11:50:15.132Z,95862
2023-04-17T11:51:24.814Z,95860
2023-04-17T11:52:33.500Z,95861
2023-04-17T11:53:43.161Z,95857
2023-04-17T11:54:51.860Z,95859
2023-04-17T11:56:00.530Z,95859
2023-04-17T11:57:10.224Z,95860
2023-04-17T11:58:18.908Z,95865
2023-04-17T11:59:27.635Z,95858
2023-04-17T12:00:36.336Z,95860
2023-04-17T12:01:46.022Z,95859
2023-04-17T12:02:55.796Z,95862
2023-04-17T12:04:03.424Z,95861
2023-04-17T12:05:13.185Z,95864
2023-04-17T12:06:22.858Z,95865
2023-04-17T12:07:31.561Z,95863
2023-04-17T12:08:40.244Z,95862
2023-04-17T12:09:48.970Z,95862
2023-04-17T12:10:58.707Z,95853
2023-04-17T12:12:08.424Z,95856
2023-04-17T12:13:18.155Z,95857
2023-04-17T12:14:27.834Z,95860
2023-04-17T12:15:37.518Z,95855
2023-04-17T12:16:45.221Z,95857
2023-04-17T12:17:54.920Z,95858
2023-04-17T12:19:03.598Z,95858
2023-04-17T12:20:13.292Z,95858
2023-04-17T12:21:24.085Z,95854
2023-04-17T12:22:31.720Z,95854
2023-04-17T12:23:41.412Z,95852
2023-04-17T12:24:51.067Z,95853
2023-04-17T12:26:00.772Z,95855
2023-04-17T12:27:09.480Z,95855
2023-04-17T12:28:19.141Z,95853
2023-04-17T12:29:42.676Z,95849
2023-04-17T12:30:39.507Z,95849
2023-04-17T12:31:47.206Z,95849
2023-04-17T12:32:56.984Z,95848
2023-04-17T12:34:06.626Z,95845
2023-04-17T12:35:16.362Z,95850
2023-04-17T12:36:25.072Z,95848
2023-04-17T12:37:34.744Z,95851
2023-04-17T12:38:43.403Z,95852
2023-04-17T12:39:53.099Z,95853
2023-04-17T12:41:01.801Z,95842
2023-04-17T12:42:09.484Z,95844
2023-04-17T12:43:18.256Z,95844
2023-04-17T12:44:26.940Z,95844
2023-04-17T12:45:35.647Z,95834
2023-04-17T12:46:45.316Z,95834
2023-04-17T12:47:53.042Z,95838
2023-04-17T12:49:01.698Z,95839
2023-04-17T12:50:11.395Z,95834
2023-04-17T12:51:20.067Z,95835
2023-04-17T12:52:28.755Z,95834
2023-04-17T12:53:37.484Z,95835
2023-04-17T12:54:46.151Z,95833
2023-04-17T12:55:55.868Z,95829
2023-04-17T12:57:04.545Z,95828
2023-04-17T12:58:13.229Z,95830
2023-04-17T12:59:22.930Z,95831
2023-04-17T13:00:30.635Z,95830
2023-04-17T13:01:40.522Z,95827
2023-04-17T13:02:49.103Z,95832
2023-04-17T13:03:57.923Z,95832
2023-04-17T13:05:07.517Z,95838
2023-04-17T13:06:17.094Z,95830
2023-04-17T13:07:25.745Z,95826
2023-04-17T13:08:35.436Z,95825
2023-04-17T13:09:44.180Z,95827
2023-04-17T13:10:52.845Z,95825
2023-04-17T13:12:02.547Z,95827
2023-04-17T13:13:12.228Z,95828
2023-04-17T13:14:21.906Z,95824
2023-04-17T13:15:30.615Z,95828
2023-04-17T13:16:39.346Z,95820
2023-04-17T13:17:49.027Z,95819
2023-04-17T13:18:57.670Z,95812
2023-04-17T13:20:06.343Z,95823
2023-04-17T13:21:15.049Z,95819
2023-04-17T13:22:24.786Z,95816
2023-04-17T13:23:34.933Z,95815
2023-04-17T13:24:42.622Z,95823
2023-04-17T13:25:51.364Z,95818
2023-04-17T13:27:01.043Z,95816
2023-04-17T13:28:09.721Z,95809
2023-04-17T13:29:19.882Z,95807
2023-04-17T13:30:29.140Z,95811
2023-04-17T13:31:37.865Z,95819
2023-04-17T13:32:46.574Z,95813
2023-04-17T13:33:54.215Z,95809
2023-04-17T13:35:03.932Z,95812
2023-04-17T13:36:13.626Z,95808
2023-04-17T13:37:22.330Z,95807
2023-04-17T13:38:31.049Z,95805
2023-04-17T13:39:39.771Z,95814
2023-04-17T13:40:49.494Z,95814
2023-04-17T13:41:59.215Z,95805
2023-04-17T13:43:07.886Z,95806
2023-04-17T13:44:17.552Z,95800
2023-04-17T13:45:27.252Z,95801
2023-04-17T13:46:35.002Z,95791
2023-04-17T13:47:43.688Z,95794
2023-04-17T13:48:52.395Z,95790
2023-04-17T13:50:01.097Z,95787
2023-04-17T13:51:10.812Z,95789
2023-04-17T13:52:19.516Z,95795
2023-04-17T13:53:28.179Z,95791
2023-04-17T13:54:38.039Z,95793
2023-04-17T13:55:45.774Z,95793
2023-04-17T13:56:54.476Z,95792
2023-04-17T13:58:04.230Z,95790
2023-04-17T13:59:12.931Z,95793
2023-04-17T14:00:22.526Z,95789
2023-04-17T14:01:32.293Z,95790
2023-04-17T14:02:40.131Z,95791
2023-04-17T14:03:49.740Z,95795
2023-04-17T14:04:57.420Z,95792
2023-04-17T14:06:06.003Z,95794
2023-04-17T14:07:14.703Z,95792
2023-04-17T14:08:24.403Z,95793
2023-04-17T14:09:34.093Z,95788
2023-04-17T14:10:42.961Z,95789
2023-04-17T14:11:50.687Z,95788
2023-04-17T14:13:00.365Z,95789
2023-04-17T14:14:09.074Z,95783
2023-04-17T14:15:17.846Z,95785
2023-04-17T14:16:29.674Z,95781
2023-04-17T14:17:39.305Z,95779
2023-04-17T14:18:48.957Z,95778
2023-04-17T14:19:57.624Z,95784
2023-04-17T14:21:07.334Z,95782
2023-04-17T14:22:17.028Z,95789
2023-04-17T14:23:24.785Z,95780
2023-04-17T14:24:33.484Z,95785
2023-04-17T14:25:42.147Z,95785
2023-04-17T14:26:50.871Z,95783
2023-04-17T14:28:00.556Z,95784
2023-04-17T14:29:08.233Z,95776
2023-04-17T14:30:16.942Z,95778
2023-04-17T14:31:26.666Z,95776
2023-04-17T14:32:34.342Z,95778
2023-04-17T14:33:42.989Z,95775
2023-04-17T14:34:52.676Z,95772
2023-04-17T14:36:01.368Z,95778
2023-04-17T14:37:10.098Z,95777
2023-04-17T14:38:19.749Z,95778
2023-04-17T14:39:30.918Z,95777
2023-04-17T14:40:37.118Z,95774
2023-04-17T14:41:45.932Z,95776
2023-04-17T14:42:55.585Z,95780
2023-04-17T14:44:05.340Z,95777
2023-04-17T14:45:14.021Z,95779
2023-04-17T14:46:23.752Z,95779
2023-04-17T14:47:33.475Z,95781
2023-04-17T14:48:52.170Z,95783